createdAt,value
2023-03-06T00:00:49.467Z,98847.66
2023-03-06T00:03:16.077Z,98842.53
2023-03-06T00:05:42.588Z,98843.16
2023-03-06T00:08:09.006Z,98841.78
2023-03-06T00:10:35.619Z,98841.47
2023-03-06T00:13:07.713Z,98834.06
2023-03-06T00:15:34.420Z,98832.91
2023-03-06T00:18:04.335Z,98833.53
2023-03-06T00:20:31.315Z,98836.59
2023-03-06T00:22:57.671Z,98830.28
2023-03-06T00:25:24.984Z,98831.13
2023-03-06T00:27:51.852Z,98831.63
2023-03-06T00:30:21.358Z,98829.97
2023-03-06T00:32:48.561Z,98832.25
2023-03-06T00:35:15.847Z,98822.63
2023-03-06T00:37:43.853Z,98824.53
2023-03-06T00:40:14.973Z,98815.22
2023-03-06T00:42:41.437Z,98819.50
2023-03-06T00:45:08.598Z,98808.22
2023-03-06T00:47:34.965Z,98804.56
2023-03-06T00:50:01.365Z,98793.78
2023-03-06T00:52:27.688Z,98787.94
2023-03-06T00:54:54.011Z,98793.59
2023-03-06T00:57:20.365Z,98788.28
2023-03-06T00:59:46.764Z,98782.50
2023-03-06T01:02:13.211Z,98779.59
2023-03-06T01:04:39.580Z,98780.44
2023-03-06T01:07:05.951Z,98767.94
2023-03-06T01:09:32.494Z,98764.81
2023-03-06T01:11:58.860Z,98764.06
2023-03-06T01:14:25.860Z,98764.97
2023-03-06T01:16:52.213Z,98768.94
2023-03-06T01:19:18.591Z,98760.38
2023-03-06T01:21:45.353Z,98757.13
2023-03-06T01:24:11.682Z,98753.25
2023-03-06T01:26:38.029Z,98749.06
2023-03-06T01:29:04.420Z,98744.28
2023-03-06T01:31:30.819Z,98737.25
2023-03-06T01:33:57.229Z,98744.03
2023-03-06T01:36:23.631Z,98737.25
2023-03-06T01:38:50.053Z,98738.38
2023-03-06T01:41:17.231Z,98734.94
2023-03-06T01:43:45.871Z,98735.06
2023-03-06T01:46:42.125Z,98739.13
2023-03-06T01:49:20.789Z,98735.56
2023-03-06T01:52:05.343Z,98726.59
2023-03-06T01:54:36.167Z,98720.00
2023-03-06T01:57:11.520Z,98722.31
2023-03-06T01:59:40.601Z,98720.94
2023-03-06T02:02:10.235Z,98714.88
2023-03-06T02:04:39.476Z,98708.53
2023-03-06T02:07:08.086Z,98702.13
2023-03-06T02:09:36.878Z,98702.94
2023-03-06T02:12:08.475Z,98694.91
2023-03-06T02:14:34.968Z,98702.53
2023-03-06T02:17:01.468Z,98693.63
2023-03-06T02:20:00.645Z,98700.66
2023-03-06T02:22:36.280Z,98684.63
2023-03-06T02:25:31.968Z,98676.13
2023-03-06T02:27:58.736Z,98678.25
2023-03-06T02:30:27.549Z,98673.75
2023-03-06T02:32:54.485Z,98683.91
2023-03-06T02:35:30.361Z,98670.09
2023-03-06T02:38:02.485Z,98665.25
2023-03-06T02:40:29.172Z,98674.69
2023-03-06T02:42:57.394Z,98679.47
2023-03-06T02:45:31.844Z,98678.88
2023-03-06T02:47:58.182Z,98679.91
2023-03-06T02:50:24.658Z,98675.75
2023-03-06T02:52:51.016Z,98668.53
2023-03-06T02:55:17.560Z,98667.78
2023-03-06T02:57:43.923Z,98660.03
2023-03-06T03:00:12.778Z,98667.34
2023-03-06T03:02:39.094Z,98667.66
2023-03-06T03:05:06.010Z,98667.78
2023-03-06T03:07:32.666Z,98661.69
2023-03-06T03:10:00.203Z,98656.91
2023-03-06T03:12:28.524Z,98665.91
2023-03-06T03:14:55.908Z,98654.72
2023-03-06T03:17:23.252Z,98662.19
2023-03-06T03:19:49.641Z,98655.84
2023-03-06T03:22:17.031Z,98640.59
2023-03-06T03:24:43.849Z,98654.16
2023-03-06T03:27:11.034Z,98650.31
2023-03-06T03:29:37.717Z,98652.91
2023-03-06T03:32:04.716Z,98651.84
2023-03-06T03:34:31.094Z,98644.13
2023-03-06T03:36:57.542Z,98641.63
2023-03-06T03:39:24.027Z,98646.13
2023-03-06T03:41:50.366Z,98651.91
2023-03-06T03:44:16.758Z,98649.50
2023-03-06T03:46:43.396Z,98649.28
2023-03-06T03:49:15.406Z,98638.72
2023-03-06T03:51:43.461Z,98650.22
2023-03-06T03:54:10.165Z,98643.75
2023-03-06T03:56:41.701Z,98649.16
2023-03-06T03:59:16.846Z,98648.69
2023-03-06T04:01:55.921Z,98644.44
2023-03-06T04:04:23.065Z,98650.75
2023-03-06T04:06:49.513Z,98654.16
2023-03-06T04:09:17.804Z,98647.59
2023-03-06T04:11:44.479Z,98646.63
2023-03-06T04:14:10.875Z,98650.66
2023-03-06T04:16:37.288Z,98629.31
2023-03-06T04:19:03.757Z,98638.75
2023-03-06T04:21:30.929Z,98627.09
2023-03-06T04:23:58.412Z,98629.47
2023-03-06T04:26:24.799Z,98619.94
2023-03-06T04:28:51.311Z,98627.44
2023-03-06T04:31:18.608Z,98624.94
2023-03-06T04:33:44.938Z,98621.97
2023-03-06T04:36:24.809Z,98595.22
2023-03-06T04:38:52.245Z,98616.03
2023-03-06T04:41:19.007Z,98608.63
2023-03-06T04:43:46.124Z,98606.09
2023-03-06T04:46:12.568Z,98607.94
2023-03-06T04:48:38.936Z,98602.63
2023-03-06T04:51:05.738Z,98595.00
2023-03-06T04:53:32.734Z,98597.50
2023-03-06T04:55:59.390Z,98591.69
2023-03-06T04:58:25.795Z,98588.44
2023-03-06T05:00:52.183Z,98583.66
2023-03-06T05:03:18.549Z,98582.63
2023-03-06T05:05:45.073Z,98572.63
2023-03-06T05:08:15.976Z,98575.38
2023-03-06T05:10:43.260Z,98578.06
2023-03-06T05:13:09.870Z,98576.88
2023-03-06T05:15:36.383Z,98580.19
2023-03-06T05:18:02.880Z,98581.47
2023-03-06T05:20:29.265Z,98569.34
2023-03-06T05:22:56.746Z,98583.88
2023-03-06T05:25:23.082Z,98575.63
2023-03-06T05:27:49.408Z,98566.84
2023-03-06T05:30:16.034Z,98582.81
2023-03-06T05:32:42.734Z,98571.22
2023-03-06T05:35:16.603Z,98577.50
2023-03-06T05:37:42.949Z,98566.88
2023-03-06T05:40:10.193Z,98574.03
2023-03-06T05:42:36.536Z,98575.97
2023-03-06T05:45:04.393Z,98567.69
2023-03-06T05:47:31.570Z,98570.97
2023-03-06T05:49:58.095Z,98555.59
2023-03-06T05:52:24.685Z,98569.66
2023-03-06T05:54:52.576Z,98572.69
2023-03-06T05:57:23.013Z,98560.41
2023-03-06T05:59:50.076Z,98565.91
2023-03-06T06:02:17.522Z,98567.09
2023-03-06T06:04:43.968Z,98566.00
2023-03-06T06:07:13.997Z,98573.97
2023-03-06T06:09:40.552Z,98571.06
2023-03-06T06:12:07.222Z,98572.66
2023-03-06T06:14:34.597Z,98566.56
2023-03-06T06:17:01.210Z,98564.09
2023-03-06T06:19:31.325Z,98567.06
2023-03-06T06:21:57.936Z,98578.97
2023-03-06T06:24:26.005Z,98573.59
2023-03-06T06:26:54.743Z,98574.03
2023-03-06T06:29:22.226Z,98574.75
2023-03-06T06:31:49.531Z,98574.94
2023-03-06T06:34:16.240Z,98574.19
2023-03-06T06:36:43.472Z,98581.13
2023-03-06T06:39:13.376Z,98578.03
2023-03-06T06:41:57.023Z,98567.38
2023-03-06T06:44:26.041Z,98570.47
2023-03-06T06:47:21.884Z,98569.34
2023-03-06T06:49:39.473Z,98571.56
2023-03-06T06:52:06.336Z,98562.97
2023-03-06T06:54:34.281Z,98574.19
2023-03-06T06:57:00.609Z,98557.03
2023-03-06T06:59:27.036Z,98564.53
2023-03-06T07:01:53.559Z,98563.50
2023-03-06T07:04:20.217Z,98572.28
2023-03-06T07:06:46.897Z,98566.44
2023-03-06T07:09:13.927Z,98572.09
2023-03-06T07:11:40.761Z,98567.28
2023-03-06T07:14:07.264Z,98575.75
2023-03-06T07:16:33.570Z,98576.00
2023-03-06T07:18:59.880Z,98577.69
2023-03-06T07:21:26.213Z,98572.47
2023-03-06T07:23:52.530Z,98570.41
2023-03-06T07:26:18.848Z,98575.63
2023-03-06T07:28:52.512Z,98578.97
2023-03-06T07:31:25.472Z,98571.47
2023-03-06T07:33:53.178Z,98579.13
2023-03-06T07:36:20.921Z,98583.19
2023-03-06T07:38:47.630Z,98573.78
2023-03-06T07:41:16.188Z,98572.84
2023-03-06T07:43:44.584Z,98580.50
2023-03-06T07:46:13.412Z,98577.59
2023-03-06T07:48:40.535Z,98579.25
2023-03-06T07:51:18.636Z,98584.47
2023-03-06T07:53:45.676Z,98593.13
2023-03-06T07:56:12.902Z,98580.28
2023-03-06T07:58:41.456Z,98583.63
2023-03-06T08:01:10.812Z,98581.88
2023-03-06T08:03:37.454Z,98587.22
2023-03-06T08:06:09.440Z,98586.38
2023-03-06T08:08:37.560Z,98587.97
2023-03-06T08:11:03.978Z,98581.19
2023-03-06T08:13:30.368Z,98592.47
2023-03-06T08:15:56.797Z,98590.59
2023-03-06T08:18:23.156Z,98589.22
2023-03-06T08:20:49.487Z,98601.66
2023-03-06T08:23:15.978Z,98594.91
2023-03-06T08:25:42.307Z,98591.03
2023-03-06T08:28:08.618Z,98594.69
2023-03-06T08:30:34.989Z,98598.25
2023-03-06T08:33:01.373Z,98588.75
2023-03-06T08:35:27.866Z,98594.94
2023-03-06T08:37:54.217Z,98593.34
2023-03-06T08:40:20.682Z,98601.28
2023-03-06T08:42:47.770Z,98601.00
2023-03-06T08:45:14.093Z,98591.56
2023-03-06T08:47:40.491Z,98596.28
2023-03-06T08:50:07.145Z,98594.72
2023-03-06T08:52:33.496Z,98599.94
2023-03-06T08:55:03.342Z,98600.75
2023-03-06T08:57:30.358Z,98606.63
2023-03-06T08:59:56.808Z,98606.63
2023-03-06T09:02:23.324Z,98601.31
2023-03-06T09:04:49.696Z,98598.25
2023-03-06T09:07:16.042Z,98607.78
2023-03-06T09:09:42.564Z,98608.72
2023-03-06T09:12:08.868Z,98603.38
2023-03-06T09:14:35.228Z,98597.63
2023-03-06T09:17:01.509Z,98608.06
2023-03-06T09:19:27.860Z,98609.31
2023-03-06T09:21:54.248Z,98603.88
2023-03-06T09:24:20.559Z,98607.97
2023-03-06T09:26:48.821Z,98612.94
2023-03-06T09:29:17.337Z,98623.91
2023-03-06T09:31:44.382Z,98609.84
2023-03-06T09:34:10.726Z,98610.72
2023-03-06T09:36:49.505Z,98611.88
2023-03-06T09:39:21.527Z,98617.41
2023-03-06T09:41:49.492Z,98622.53
2023-03-06T09:44:19.805Z,98615.22
2023-03-06T09:46:55.366Z,98618.06
2023-03-06T09:49:37.624Z,98616.59
2023-03-06T09:52:29.229Z,98614.16
2023-03-06T09:55:14.635Z,98618.72
2023-03-06T09:58:08.705Z,98624.94
2023-03-06T10:00:43.676Z,98619.25
2023-03-06T10:03:29.735Z,98632.13
2023-03-06T10:06:08.342Z,98625.38
2023-03-06T10:08:51.286Z,98613.53
2023-03-06T10:11:48.647Z,98617.09
2023-03-06T10:14:35.883Z,98623.22
2023-03-06T10:17:03.739Z,98621.09
2023-03-06T10:19:35.939Z,98611.47
2023-03-06T10:22:11.411Z,98619.00
2023-03-06T10:25:02.996Z,98609.97
2023-03-06T10:27:42.644Z,98607.03
2023-03-06T10:30:27.380Z,98609.78
2023-03-06T10:33:08.448Z,98604.94
2023-03-06T10:35:48.645Z,98602.59
2023-03-06T10:38:23.022Z,98604.88
2023-03-06T10:40:58.346Z,98613.13
2023-03-06T10:43:25.402Z,98614.16
2023-03-06T10:45:53.184Z,98598.91
2023-03-06T10:48:23.174Z,98605.59
2023-03-06T10:50:50.288Z,98596.78
2023-03-06T10:53:23.274Z,98595.34
2023-03-06T10:55:58.159Z,98597.25
2023-03-06T10:58:30.101Z,98605.56
2023-03-06T11:01:19.547Z,98607.72
2023-03-06T11:03:47.598Z,98601.41
2023-03-06T11:06:37.636Z,98602.59
2023-03-06T11:09:23.493Z,98596.28
2023-03-06T11:11:51.205Z,98605.63
2023-03-06T11:14:27.600Z,98595.94
2023-03-06T11:16:54.077Z,98599.41
2023-03-06T11:19:27.869Z,98591.13
2023-03-06T11:22:04.593Z,98592.41
2023-03-06T11:24:42.169Z,98592.63
2023-03-06T11:27:34.240Z,98587.94
2023-03-06T11:30:05.343Z,98576.56
2023-03-06T11:32:43.648Z,98580.59
2023-03-06T11:35:16.500Z,98585.06
2023-03-06T11:37:49.378Z,98582.78
2023-03-06T11:40:41.756Z,98567.13
2023-03-06T11:43:29.881Z,98565.41
2023-03-06T11:45:59.175Z,98568.13
2023-03-06T11:48:35.438Z,98559.44
2023-03-06T11:51:15.992Z,98554.41
2023-03-06T11:53:42.841Z,98557.69
2023-03-06T11:56:28.842Z,98555.09
2023-03-06T11:59:05.207Z,98543.50
2023-03-06T12:01:51.942Z,98546.78
2023-03-06T12:04:41.252Z,98539.91
2023-03-06T12:07:40.793Z,98538.94
2023-03-06T12:10:18.816Z,98542.34
2023-03-06T12:12:54.320Z,98543.09
2023-03-06T12:15:46.983Z,98537.31
2023-03-06T12:18:50.769Z,98535.00
2023-03-06T12:21:37.841Z,98525.50
2023-03-06T12:24:19.869Z,98526.84
2023-03-06T12:26:58.844Z,98528.97
2023-03-06T12:29:40.728Z,98511.84
2023-03-06T12:32:22.382Z,98522.06
2023-03-06T12:35:08.613Z,98512.31
2023-03-06T12:38:00.934Z,98508.34
2023-03-06T12:40:54.387Z,98505.84
2023-03-06T12:43:40.157Z,98499.16
2023-03-06T12:46:15.244Z,98502.28
2023-03-06T12:48:45.819Z,98497.28
2023-03-06T12:51:16.612Z,98488.28
2023-03-06T12:53:44.469Z,98488.69
2023-03-06T12:56:15.410Z,98485.53
2023-03-06T12:58:47.885Z,98481.75
2023-03-06T13:01:37.523Z,98480.09
2023-03-06T13:04:44.259Z,98471.47
2023-03-06T13:07:52.730Z,98477.09
2023-03-06T13:10:27.322Z,98475.13
2023-03-06T13:12:55.938Z,98477.94
2023-03-06T13:15:42.539Z,98476.59
2023-03-06T13:18:21.239Z,98471.34
2023-03-06T13:20:49.429Z,98478.50
2023-03-06T13:23:34.837Z,98464.47
2023-03-06T13:26:10.571Z,98470.41
2023-03-06T13:28:50.005Z,98459.69
2023-03-06T13:31:28.616Z,98454.47
2023-03-06T13:34:01.060Z,98464.38
2023-03-06T13:36:30.464Z,98460.28
2023-03-06T13:39:01.948Z,98453.94
2023-03-06T13:41:31.264Z,98462.72
2023-03-06T13:44:05.938Z,98458.09
2023-03-06T13:46:35.462Z,98446.53
2023-03-06T13:49:07.601Z,98458.31
2023-03-06T13:51:40.552Z,98462.25
2023-03-06T13:54:28.297Z,98443.97
2023-03-06T13:57:27.179Z,98446.97
2023-03-06T14:00:11.287Z,98454.72
2023-03-06T14:02:46.454Z,98447.19
2023-03-06T14:05:15.672Z,98434.47
2023-03-06T14:07:45.396Z,98430.28
2023-03-06T14:10:21.332Z,98433.13
2023-03-06T14:12:50.601Z,98430.66
2023-03-06T14:15:18.850Z,98433.22
2023-03-06T14:18:14.522Z,98429.69
2023-03-06T14:20:45.039Z,98435.16
2023-03-06T14:23:21.357Z,98427.00
2023-03-06T14:25:54.657Z,98427.19
2023-03-06T14:28:26.648Z,98438.50
2023-03-06T14:30:54.913Z,98432.41
2023-03-06T14:33:30.682Z,98443.91
2023-03-06T14:36:01.604Z,98440.72
2023-03-06T14:38:34.158Z,98439.75
2023-03-06T14:41:01.384Z,98442.03
2023-03-06T14:43:28.123Z,98434.84
2023-03-06T14:45:57.500Z,98445.25
2023-03-06T14:48:38.330Z,98439.66
2023-03-06T14:51:05.728Z,98443.53
2023-03-06T14:53:34.003Z,98442.31
2023-03-06T14:56:05.075Z,98438.97
2023-03-06T14:58:43.813Z,98446.66
2023-03-06T15:01:15.533Z,98437.44
2023-03-06T15:03:51.192Z,98449.13
2023-03-06T15:06:22.418Z,98439.81
2023-03-06T15:08:54.238Z,98448.22
2023-03-06T15:11:20.574Z,98444.94
2023-03-06T15:14:00.951Z,98445.59
2023-03-06T15:16:30.387Z,98446.22
2023-03-06T15:19:04.320Z,98439.91
2023-03-06T15:21:36.269Z,98440.34
2023-03-06T15:24:30.793Z,98444.78
2023-03-06T15:27:01.703Z,98440.34
2023-03-06T15:29:28.148Z,98438.50
2023-03-06T15:32:24.453Z,98432.38
2023-03-06T15:35:28.483Z,98433.72
2023-03-06T15:37:55.538Z,98441.84
2023-03-06T15:40:24.439Z,98440.31
2023-03-06T15:42:50.843Z,98436.97
2023-03-06T15:45:20.484Z,98441.88
2023-03-06T15:47:48.729Z,98430.66
2023-03-06T15:50:17.855Z,98431.03
2023-03-06T15:52:45.212Z,98435.28
2023-03-06T15:55:13.143Z,98425.16
2023-03-06T15:57:46.359Z,98428.28
2023-03-06T16:00:27.409Z,98429.22
2023-03-06T16:02:58.264Z,98425.91
2023-03-06T16:05:25.695Z,98437.09
2023-03-06T16:07:52.361Z,98430.47
2023-03-06T16:10:21.168Z,98432.72
2023-03-06T16:12:50.411Z,98427.56
2023-03-06T16:15:20.045Z,98421.25
2023-03-06T16:17:47.174Z,98430.19
2023-03-06T16:20:19.453Z,98433.09
2023-03-06T16:22:46.875Z,98435.44
2023-03-06T16:25:14.298Z,98434.50
2023-03-06T16:27:43.690Z,98431.16
2023-03-06T16:30:18.878Z,98429.25
2023-03-06T16:32:46.196Z,98430.47
2023-03-06T16:35:13.813Z,98446.94
2023-03-06T16:37:41.110Z,98437.03
2023-03-06T16:40:32.441Z,98440.16
2023-03-06T16:42:58.721Z,98440.50
2023-03-06T16:45:25.027Z,98437.53
2023-03-06T16:47:51.574Z,98447.66
2023-03-06T16:50:33.293Z,98445.06
2023-03-06T16:52:59.801Z,98458.19
2023-03-06T16:55:27.193Z,98449.59
2023-03-06T16:57:54.314Z,98450.78
2023-03-06T17:00:31.156Z,98447.31
2023-03-06T17:03:20.662Z,98442.91
2023-03-06T17:05:46.948Z,98444.59
2023-03-06T17:08:13.633Z,98436.75
2023-03-06T17:10:41.872Z,98442.34
2023-03-06T17:13:08.539Z,98434.94
2023-03-06T17:15:34.855Z,98441.47
2023-03-06T17:18:01.198Z,98442.44
2023-03-06T17:20:27.605Z,98444.47
2023-03-06T17:22:54.187Z,98438.66
2023-03-06T17:25:20.542Z,98434.94
2023-03-06T17:27:46.865Z,98444.84
2023-03-06T17:30:13.501Z,98447.97
2023-03-06T17:32:40.886Z,98446.88
2023-03-06T17:35:09.311Z,98451.88
2023-03-06T17:37:35.813Z,98445.09
2023-03-06T17:40:02.148Z,98452.22
2023-03-06T17:42:28.612Z,98441.75
2023-03-06T17:44:55.009Z,98442.94
2023-03-06T17:47:21.337Z,98447.47
2023-03-06T17:49:47.703Z,98443.19
2023-03-06T17:52:14.006Z,98444.34
2023-03-06T17:54:40.421Z,98446.28
2023-03-06T17:57:06.749Z,98442.00
2023-03-06T17:59:36.368Z,98442.47
2023-03-06T18:02:02.909Z,98440.78
2023-03-06T18:04:29.810Z,98430.16
2023-03-06T18:06:57.057Z,98428.53
2023-03-06T18:09:23.980Z,98439.25
2023-03-06T18:11:50.310Z,98445.66
2023-03-06T18:14:16.630Z,98434.81
2023-03-06T18:16:43.009Z,98439.00
2023-03-06T18:19:10.923Z,98435.31
2023-03-06T18:21:38.885Z,98435.53
2023-03-06T18:24:05.619Z,98438.38
2023-03-06T18:26:32.089Z,98432.09
2023-03-06T18:29:03.476Z,98425.91
2023-03-06T18:31:34.460Z,98421.03
2023-03-06T18:34:10.127Z,98416.69
2023-03-06T18:36:37.023Z,98427.81
2023-03-06T18:39:06.072Z,98418.72
2023-03-06T18:41:32.732Z,98409.41
2023-03-06T18:44:00.580Z,98422.88
2023-03-06T18:46:32.783Z,98421.72
2023-03-06T18:48:59.388Z,98421.19
2023-03-06T18:51:25.792Z,98415.00
2023-03-06T18:53:52.208Z,98425.75
2023-03-06T18:56:21.708Z,98419.88
2023-03-06T18:58:48.206Z,98420.97
2023-03-06T19:01:14.944Z,98419.91
2023-03-06T19:03:41.408Z,98416.44
2023-03-06T19:06:13.288Z,98411.44
2023-03-06T19:08:40.328Z,98414.53
2023-03-06T19:11:09.586Z,98408.06
2023-03-06T19:13:36.501Z,98410.44
2023-03-06T19:16:03.152Z,98400.81
2023-03-06T19:18:30.156Z,98398.53
2023-03-06T19:21:10.126Z,98400.53
2023-03-06T19:23:36.500Z,98397.19
2023-03-06T19:26:02.814Z,98408.47
2023-03-06T19:28:29.469Z,98405.78
2023-03-06T19:30:56.870Z,98416.47
2023-03-06T19:33:23.201Z,98411.06
2023-03-06T19:35:49.614Z,98413.66
2023-03-06T19:38:16.040Z,98414.09
2023-03-06T19:40:51.742Z,98406.97
2023-03-06T19:43:18.085Z,98409.75
2023-03-06T19:45:44.862Z,98408.75
2023-03-06T19:48:12.398Z,98401.97
2023-03-06T19:50:39.866Z,98408.41
2023-03-06T19:53:07.688Z,98408.25
2023-03-06T19:55:34.691Z,98416.50
2023-03-06T19:58:01.068Z,98402.22
2023-03-06T20:00:27.876Z,98400.50
2023-03-06T20:02:54.193Z,98401.81
2023-03-06T20:05:20.544Z,98406.03
2023-03-06T20:07:46.932Z,98401.41
2023-03-06T20:10:13.268Z,98405.19
2023-03-06T20:12:39.604Z,98413.75
2023-03-06T20:15:06.750Z,98406.13
2023-03-06T20:17:34.183Z,98399.94
2023-03-06T20:20:00.681Z,98411.81
2023-03-06T20:22:27.183Z,98396.88
2023-03-06T20:24:53.630Z,98398.97
2023-03-06T20:27:20.168Z,98394.47
2023-03-06T20:29:46.788Z,98398.13
2023-03-06T20:32:13.435Z,98390.91
2023-03-06T20:34:40.181Z,98393.72
2023-03-06T20:37:08.602Z,98382.84
2023-03-06T20:39:35.785Z,98376.91
2023-03-06T20:42:05.165Z,98380.97
2023-03-06T20:44:31.757Z,98381.00
2023-03-06T20:46:58.104Z,98390.44
2023-03-06T20:49:27.105Z,98384.47
2023-03-06T20:51:53.574Z,98384.59
2023-03-06T20:54:19.945Z,98392.66
2023-03-06T20:56:48.229Z,98390.91
2023-03-06T20:59:15.192Z,98380.78
2023-03-06T21:01:44.678Z,98385.59
2023-03-06T21:04:13.748Z,98385.91
2023-03-06T21:06:42.354Z,98378.06
2023-03-06T21:09:08.676Z,98380.13
2023-03-06T21:11:35.245Z,98382.06
2023-03-06T21:14:01.882Z,98372.06
2023-03-06T21:16:30.105Z,98355.66
2023-03-06T21:18:58.508Z,98368.13
2023-03-06T21:21:27.500Z,98354.59
2023-03-06T21:23:54.040Z,98349.03
2023-03-06T21:26:22.578Z,98354.66
2023-03-06T21:28:49.635Z,98346.53
2023-03-06T21:31:17.876Z,98343.19
2023-03-06T21:33:45.055Z,98339.25
2023-03-06T21:36:11.566Z,98334.44
2023-03-06T21:38:38.611Z,98334.78
2023-03-06T21:41:16.863Z,98326.50
2023-03-06T21:43:43.239Z,98330.28
2023-03-06T21:46:11.136Z,98339.47
2023-03-06T21:48:37.835Z,98328.19
2023-03-06T21:51:09.981Z,98328.72
2023-03-06T21:53:36.863Z,98311.38
2023-03-06T21:56:04.301Z,98310.16
2023-03-06T21:58:30.682Z,98305.53
2023-03-06T22:00:57.303Z,98309.44
2023-03-06T22:03:24.095Z,98310.53
2023-03-06T22:05:51.911Z,98316.84
2023-03-06T22:08:24.209Z,98304.75
2023-03-06T22:10:50.600Z,98296.34
2023-03-06T22:13:16.933Z,98297.31
2023-03-06T22:15:51.666Z,98300.25
2023-03-06T22:18:18.195Z,98296.31
2023-03-06T22:20:45.033Z,98291.91
2023-03-06T22:23:11.865Z,98296.56
2023-03-06T22:25:38.290Z,98283.88
2023-03-06T22:28:04.588Z,98283.94
2023-03-06T22:30:30.896Z,98279.28
2023-03-06T22:32:57.255Z,98282.59
2023-03-06T22:35:23.621Z,98280.88
2023-03-06T22:37:49.906Z,98282.13
2023-03-06T22:40:16.622Z,98278.56
2023-03-06T22:42:43.049Z,98272.50
2023-03-06T22:45:09.794Z,98273.91
2023-03-06T22:47:36.838Z,98289.41
2023-03-06T22:50:04.422Z,98285.00
2023-03-06T22:52:30.732Z,98285.91
2023-03-06T22:54:57.027Z,98288.97
2023-03-06T22:57:23.376Z,98283.22
2023-03-06T22:59:49.665Z,98275.31
2023-03-06T23:02:15.978Z,98286.97
2023-03-06T23:04:42.385Z,98277.25
2023-03-06T23:07:08.720Z,98277.25
2023-03-06T23:09:35.004Z,98278.94
2023-03-06T23:12:19.744Z,98274.66
2023-03-06T23:15:05.121Z,98274.66
2023-03-06T23:17:51.089Z,98270.50
2023-03-06T23:20:41.578Z,98251.16
2023-03-06T23:23:27.030Z,98250.16
2023-03-06T23:25:59.065Z,98263.00
2023-03-06T23:28:26.142Z,98263.22
2023-03-06T23:30:52.556Z,98265.84
2023-03-06T23:33:19.067Z,98251.97
2023-03-06T23:35:45.584Z,98258.19
2023-03-06T23:38:12.339Z,98247.31
2023-03-06T23:40:38.960Z,98248.81
2023-03-06T23:43:05.460Z,98246.13
2023-03-06T23:45:32.049Z,98247.28
2023-03-06T23:47:58.806Z,98245.88
2023-03-06T23:50:26.169Z,98237.81
2023-03-06T23:52:53.585Z,98251.91
2023-03-06T23:55:20.052Z,98243.38
2023-03-06T23:57:46.370Z,98246.13
